createdAt,value
2023-04-01T00:00:10.593Z,736.10
2023-04-01T00:02:38.906Z,743.23
2023-04-01T00:05:07.745Z,707.93
2023-04-01T00:07:35.952Z,714.40
2023-04-01T00:10:05.956Z,692.63
2023-04-01T00:12:34.244Z,730.53
2023-04-01T00:15:02.502Z,729.40
2023-04-01T00:17:31.061Z,731.27
2023-04-01T00:19:59.228Z,762.53
2023-04-01T00:22:28.148Z,752.20
2023-04-01T00:24:56.485Z,736.83
2023-04-01T00:27:26.156Z,730.63
2023-04-01T00:29:54.325Z,751.60
2023-04-01T00:32:22.593Z,724.60
2023-04-01T00:34:53.392Z,720.87
2023-04-01T00:37:21.925Z,734.93
2023-04-01T00:39:50.190Z,754.03
2023-04-01T00:42:18.947Z,749.10
2023-04-01T00:44:51.104Z,731.77
2023-04-01T00:47:19.459Z,756.63
2023-04-01T00:49:49.229Z,750.33
2023-04-01T00:52:20.325Z,751.37
2023-04-01T00:54:50.014Z,756.33
2023-04-01T00:57:20.279Z,756.83
2023-04-01T00:59:51.893Z,761.57
2023-04-01T01:02:20.119Z,787.23
2023-04-01T01:04:48.585Z,786.47
2023-04-01T01:07:23.082Z,792.17
2023-04-01T01:09:55.325Z,798.67
2023-04-01T01:12:24.731Z,792.93
2023-04-01T01:14:57.957Z,791.03
2023-04-01T01:17:32.566Z,790.00
2023-04-01T01:20:26.005Z,778.67
2023-04-01T01:23:00.892Z,790.80
2023-04-01T01:25:34.840Z,802.80
2023-04-01T01:28:13.618Z,820.53
2023-04-01T01:30:46.141Z,825.47
2023-04-01T01:33:31.440Z,788.60
2023-04-01T01:36:02.379Z,815.63
2023-04-01T01:38:33.926Z,801.73
2023-04-01T01:41:03.061Z,800.80
2023-04-01T01:43:34.525Z,795.40
2023-04-01T01:46:06.858Z,807.30
2023-04-01T01:48:35.589Z,776.00
2023-04-01T01:51:05.394Z,793.23
2023-04-01T01:53:33.623Z,784.87
2023-04-01T01:56:01.813Z,772.70
2023-04-01T01:58:32.162Z,793.37
2023-04-01T02:01:02.099Z,809.00
2023-04-01T02:03:32.445Z,806.60
2023-04-01T02:06:02.203Z,814.47
2023-04-01T02:08:34.108Z,802.33
2023-04-01T02:11:04.276Z,808.03
2023-04-01T02:13:33.759Z,791.73
2023-04-01T02:16:03.147Z,804.67
2023-04-01T02:18:32.570Z,795.47
2023-04-01T02:21:01.589Z,795.77
2023-04-01T02:23:30.647Z,787.43
2023-04-01T02:26:00.273Z,795.67
2023-04-01T02:28:28.980Z,797.97
2023-04-01T02:30:57.402Z,789.67
2023-04-01T02:33:26.543Z,789.77
2023-04-01T02:35:54.843Z,795.13
2023-04-01T02:38:23.421Z,788.47
2023-04-01T02:40:52.808Z,787.40
2023-04-01T02:43:22.323Z,785.87
2023-04-01T02:45:50.567Z,754.70
2023-04-01T02:48:18.746Z,804.60
2023-04-01T02:50:47.091Z,785.20
2023-04-01T02:53:15.458Z,798.20
2023-04-01T02:55:43.905Z,801.43
2023-04-01T02:58:12.275Z,808.30
2023-04-01T03:00:41.774Z,816.37
2023-04-01T03:03:10.060Z,821.70
2023-04-01T03:05:38.463Z,802.97
2023-04-01T03:08:07.256Z,802.87
2023-04-01T03:10:35.633Z,822.70
2023-04-01T03:13:03.781Z,811.33
2023-04-01T03:15:32.213Z,827.77
2023-04-01T03:18:01.982Z,825.50
2023-04-01T03:20:30.225Z,814.27
2023-04-01T03:22:58.603Z,820.73
2023-04-01T03:25:27.898Z,821.80
2023-04-01T03:27:56.145Z,823.97
2023-04-01T03:30:24.395Z,814.40
2023-04-01T03:32:52.773Z,822.90
2023-04-01T03:35:22.403Z,824.03
2023-04-01T03:37:50.833Z,821.63
2023-04-01T03:40:19.098Z,824.03
2023-04-01T03:42:47.560Z,821.43
2023-04-01T03:45:15.792Z,811.47
2023-04-01T03:47:44.104Z,836.83
2023-04-01T03:50:12.697Z,824.20
2023-04-01T03:52:42.250Z,830.20
2023-04-01T03:55:10.566Z,822.10
2023-04-01T03:57:38.762Z,840.27
2023-04-01T04:00:09.710Z,833.67
2023-04-01T04:02:38.032Z,834.87
2023-04-01T04:05:07.931Z,829.47
2023-04-01T04:07:36.883Z,841.83
2023-04-01T04:10:07.216Z,831.50
2023-04-01T04:12:35.598Z,849.40
2023-04-01T04:15:04.032Z,840.97
2023-04-01T04:17:32.244Z,826.40
2023-04-01T04:20:00.462Z,829.93
2023-04-01T04:22:28.651Z,828.90
2023-04-01T04:24:56.819Z,840.97
2023-04-01T04:27:26.433Z,828.13
2023-04-01T04:29:54.580Z,832.33
2023-04-01T04:32:22.843Z,796.40
2023-04-01T04:34:50.991Z,825.17
2023-04-01T04:37:19.135Z,798.47
2023-04-01T04:39:47.318Z,798.60
2023-04-01T04:42:15.512Z,803.27
2023-04-01T04:44:45.096Z,763.53
2023-04-01T04:47:13.538Z,761.20
2023-04-01T04:49:41.857Z,768.93
2023-04-01T04:52:10.018Z,769.97
2023-04-01T04:54:38.284Z,776.53
2023-04-01T04:57:06.507Z,733.70
2023-04-01T04:59:34.728Z,751.40
2023-04-01T05:02:04.294Z,740.27
2023-04-01T05:04:32.452Z,722.07
2023-04-01T05:07:01.012Z,739.20
2023-04-01T05:09:29.241Z,721.40
2023-04-01T05:11:57.432Z,732.73
2023-04-01T05:14:25.715Z,749.33
2023-04-01T05:16:55.277Z,752.63
2023-04-01T05:19:25.010Z,791.47
2023-04-01T05:21:53.819Z,786.30
2023-04-01T05:24:22.011Z,783.43
2023-04-01T05:26:50.171Z,784.63
2023-04-01T05:29:18.424Z,797.57
2023-04-01T05:31:46.624Z,782.43
2023-04-01T05:34:15.717Z,784.53
2023-04-01T05:36:45.327Z,742.73
2023-04-01T05:39:13.716Z,785.27
2023-04-01T05:41:42.463Z,789.43
2023-04-01T05:44:14.295Z,801.20
2023-04-01T05:46:42.581Z,786.00
2023-04-01T05:49:10.868Z,783.63
2023-04-01T05:51:39.058Z,800.97
2023-04-01T05:54:08.792Z,794.73
2023-04-01T05:56:36.988Z,780.20
2023-04-01T05:59:05.239Z,761.63
2023-04-01T06:01:33.374Z,769.93
2023-04-01T06:04:01.677Z,764.77
2023-04-01T06:06:31.931Z,784.07
2023-04-01T06:09:01.628Z,788.87
2023-04-01T06:11:37.558Z,777.57
2023-04-01T06:14:16.963Z,742.37
2023-04-01T06:16:51.320Z,759.50
2023-04-01T06:19:25.350Z,696.87
2023-04-01T06:22:08.379Z,720.30
2023-04-01T06:24:44.112Z,748.67
2023-04-01T06:27:19.037Z,733.47
2023-04-01T06:29:50.993Z,736.83
2023-04-01T06:32:46.101Z,762.23
2023-04-01T06:35:20.745Z,763.33
2023-04-01T06:38:06.670Z,736.33
2023-04-01T06:40:41.770Z,719.97
2023-04-01T06:43:18.249Z,758.83
2023-04-01T06:45:51.534Z,757.40
2023-04-01T06:48:26.314Z,760.17
2023-04-01T06:51:00.744Z,769.30
2023-04-01T06:53:34.275Z,781.77
2023-04-01T06:56:05.162Z,771.13
2023-04-01T06:58:37.311Z,769.07
2023-04-01T07:01:06.805Z,753.67
2023-04-01T07:03:36.390Z,754.43
2023-04-01T07:06:06.217Z,697.70
2023-04-01T07:08:36.202Z,746.13
2023-04-01T07:11:05.696Z,745.23
2023-04-01T07:13:37.039Z,732.93
2023-04-01T07:16:11.380Z,714.37
2023-04-01T07:18:41.529Z,747.60
2023-04-01T07:21:12.310Z,744.43
2023-04-01T07:23:43.680Z,684.30
2023-04-01T07:26:17.565Z,670.37
2023-04-01T07:28:47.647Z,692.17
2023-04-01T07:31:21.565Z,689.20
2023-04-01T07:33:55.648Z,714.37
2023-04-01T07:36:28.321Z,703.43
2023-04-01T07:39:02.069Z,732.83
2023-04-01T07:41:33.491Z,729.97
2023-04-01T07:44:08.711Z,695.20
2023-04-01T07:46:49.728Z,702.97
2023-04-01T07:49:20.017Z,700.97
2023-04-01T07:51:51.139Z,657.03
2023-04-01T07:54:22.320Z,665.87
2023-04-01T07:56:54.382Z,678.07
2023-04-01T07:59:27.803Z,725.70
2023-04-01T08:02:01.155Z,751.47
2023-04-01T08:04:43.064Z,735.23
2023-04-01T08:07:13.020Z,739.77
2023-04-01T08:09:45.276Z,742.50
2023-04-01T08:12:20.222Z,771.33
2023-04-01T08:14:55.414Z,717.70
2023-04-01T08:17:28.146Z,737.33
2023-04-01T08:20:01.724Z,725.13
2023-04-01T08:22:31.943Z,742.73
2023-04-01T08:25:03.584Z,713.57
2023-04-01T08:27:36.878Z,737.13
2023-04-01T08:30:10.402Z,704.70
2023-04-01T08:32:39.887Z,708.03
2023-04-01T08:35:11.200Z,702.07
2023-04-01T08:37:40.877Z,741.87
2023-04-01T08:40:19.045Z,727.07
2023-04-01T08:42:53.438Z,695.50
2023-04-01T08:45:28.513Z,702.23
2023-04-01T08:48:09.439Z,690.10
2023-04-01T08:50:52.714Z,709.60
2023-04-01T08:53:26.942Z,741.27
2023-04-01T08:56:04.408Z,738.90
2023-04-01T08:58:45.479Z,721.83
2023-04-01T09:01:21.673Z,748.50
2023-04-01T09:04:01.563Z,753.27
2023-04-01T09:06:34.464Z,748.63
2023-04-01T09:09:31.024Z,750.63
2023-04-01T09:12:10.035Z,722.50
2023-04-01T09:14:49.396Z,713.07
2023-04-01T09:17:30.871Z,738.80
2023-04-01T09:20:09.614Z,741.77
2023-04-01T09:22:44.676Z,743.33
2023-04-01T09:25:32.384Z,715.17
2023-04-01T09:28:03.759Z,729.93
2023-04-01T09:30:36.469Z,741.43
2023-04-01T09:33:19.560Z,759.40
2023-04-01T09:35:50.476Z,677.00
2023-04-01T09:38:24.312Z,725.70
2023-04-01T09:40:58.082Z,751.27
2023-04-01T09:43:28.681Z,733.87
2023-04-01T09:46:06.235Z,723.37
2023-04-01T09:48:43.114Z,685.90
2023-04-01T09:51:20.771Z,722.80
2023-04-01T09:53:52.945Z,696.60
2023-04-01T09:56:26.536Z,667.23
2023-04-01T09:59:07.002Z,730.70
2023-04-01T10:01:48.429Z,677.67
2023-04-01T10:04:38.342Z,663.07
2023-04-01T10:07:37.514Z,661.87
2023-04-01T10:10:23.605Z,597.67
2023-04-01T10:13:02.417Z,581.23
2023-04-01T10:15:43.651Z,634.80
2023-04-01T10:18:44.821Z,595.30
2023-04-01T10:21:25.661Z,686.33
2023-04-01T10:24:13.314Z,676.37
2023-04-01T10:26:52.382Z,701.03
2023-04-01T10:29:39.238Z,592.80
2023-04-01T10:32:16.116Z,494.47
2023-04-01T10:35:09.708Z,582.13
2023-04-01T10:37:46.343Z,701.17
2023-04-01T10:40:30.076Z,707.47
2023-04-01T10:43:13.901Z,678.90
2023-04-01T10:46:01.454Z,702.07
2023-04-01T10:48:38.115Z,633.80
2023-04-01T10:51:18.944Z,642.13
2023-04-01T10:54:08.251Z,659.50
2023-04-01T10:56:39.227Z,635.53
2023-04-01T10:59:26.354Z,670.43
2023-04-01T11:02:12.573Z,692.10
2023-04-01T11:04:52.775Z,711.47
2023-04-01T11:07:30.755Z,694.17
2023-04-01T11:10:16.825Z,650.67
2023-04-01T11:13:04.529Z,600.23
2023-04-01T11:15:43.890Z,607.17
2023-04-01T11:18:39.344Z,669.43
2023-04-01T11:21:26.805Z,685.77
2023-04-01T11:24:07.130Z,617.07
2023-04-01T11:26:36.488Z,618.60
2023-04-01T11:29:10.515Z,652.10
2023-04-01T11:31:43.359Z,688.13
2023-04-01T11:34:18.702Z,697.17
2023-04-01T11:36:51.060Z,710.83
2023-04-01T11:39:24.689Z,708.27
2023-04-01T11:41:57.006Z,619.90
2023-04-01T11:44:28.198Z,684.13
2023-04-01T11:47:04.232Z,693.17
2023-04-01T11:49:52.698Z,675.70
2023-04-01T11:52:27.811Z,725.10
2023-04-01T11:55:09.200Z,735.47
2023-04-01T11:57:52.483Z,758.57
2023-04-01T12:00:27.442Z,698.60
2023-04-01T12:03:03.766Z,721.87
2023-04-01T12:05:37.881Z,692.23
2023-04-01T12:08:15.678Z,724.13
2023-04-01T12:10:47.820Z,697.50
2023-04-01T12:13:28.457Z,704.33
2023-04-01T12:16:10.536Z,753.90
2023-04-01T12:18:41.268Z,683.53
2023-04-01T12:21:17.727Z,660.90
2023-04-01T12:23:53.640Z,621.93
2023-04-01T12:26:40.570Z,602.97
2023-04-01T12:29:21.720Z,660.47
2023-04-01T12:31:55.136Z,568.10
2023-04-01T12:34:41.012Z,550.53
2023-04-01T12:37:16.119Z,450.10
2023-04-01T12:40:02.027Z,507.93
2023-04-01T12:42:39.632Z,516.77
2023-04-01T12:45:19.913Z,526.13
2023-04-01T12:47:58.499Z,431.50
2023-04-01T12:50:30.674Z,529.27
2023-04-01T12:53:05.973Z,604.30
2023-04-01T12:55:39.302Z,576.50
2023-04-01T12:58:37.430Z,581.90
2023-04-01T13:01:11.608Z,581.33
2023-04-01T13:03:46.719Z,569.40
2023-04-01T13:06:27.863Z,505.87
2023-04-01T13:09:00.441Z,561.33
2023-04-01T13:11:36.455Z,657.80
2023-04-01T13:14:31.806Z,671.77
2023-04-01T13:17:05.506Z,647.87
2023-04-01T13:19:39.121Z,648.50
2023-04-01T13:22:09.913Z,630.97
2023-04-01T13:24:42.493Z,597.20
2023-04-01T13:27:14.619Z,582.07
2023-04-01T13:29:43.890Z,612.00
2023-04-01T13:32:40.818Z,630.90
2023-04-01T13:35:20.124Z,676.57
2023-04-01T13:37:55.268Z,650.00
2023-04-01T13:40:38.219Z,564.50
2023-04-01T13:43:10.418Z,560.33
2023-04-01T13:45:44.853Z,515.53
2023-04-01T13:48:29.805Z,458.20
2023-04-01T13:51:12.817Z,430.97
2023-04-01T13:53:51.499Z,414.60
2023-04-01T13:56:24.533Z,471.70
2023-04-01T13:58:58.058Z,493.03
2023-04-01T14:01:32.488Z,508.90
2023-04-01T14:04:12.737Z,403.00
2023-04-01T14:06:50.755Z,380.03
2023-04-01T14:09:29.003Z,319.00
2023-04-01T14:12:01.163Z,320.97
2023-04-01T14:14:33.944Z,380.03
2023-04-01T14:17:11.190Z,417.53
2023-04-01T14:19:49.086Z,329.90
2023-04-01T14:22:24.517Z,271.27
2023-04-01T14:25:02.073Z,245.93
2023-04-01T14:27:40.958Z,323.03
2023-04-01T14:30:20.388Z,421.03
2023-04-01T14:32:52.593Z,431.80
2023-04-01T14:35:27.418Z,441.30
2023-04-01T14:38:05.401Z,431.20
2023-04-01T14:40:43.049Z,477.73
2023-04-01T14:43:17.544Z,467.03
2023-04-01T14:45:48.931Z,475.53
2023-04-01T14:48:20.469Z,475.47
2023-04-01T14:50:49.934Z,377.30
2023-04-01T14:53:28.869Z,309.50
2023-04-01T14:55:58.018Z,269.83
2023-04-01T14:58:27.280Z,274.17
2023-04-01T15:01:00.859Z,232.87
2023-04-01T15:03:31.720Z,236.47
2023-04-01T15:06:12.607Z,271.00
2023-04-01T15:08:46.969Z,306.13
2023-04-01T15:11:35.952Z,232.10
2023-04-01T15:14:22.137Z,226.80
2023-04-01T15:16:56.904Z,188.23
2023-04-01T15:19:29.904Z,189.63
2023-04-01T15:22:03.489Z,162.53
2023-04-01T15:24:43.400Z,177.07
2023-04-01T15:27:16.071Z,174.73
2023-04-01T15:29:49.379Z,166.97
2023-04-01T15:32:20.099Z,184.50
2023-04-01T15:34:52.661Z,161.47
2023-04-01T15:37:25.825Z,286.67
2023-04-01T15:39:58.822Z,248.90
2023-04-01T15:42:31.297Z,206.97
2023-04-01T15:45:06.724Z,212.30
2023-04-01T15:47:36.713Z,221.90
2023-04-01T15:50:18.528Z,222.97
2023-04-01T15:52:51.208Z,201.63
2023-04-01T15:55:23.738Z,203.40
2023-04-01T15:57:58.881Z,191.90
2023-04-01T16:00:30.866Z,198.33
2023-04-01T16:03:13.064Z,205.37
2023-04-01T16:05:45.592Z,176.00
2023-04-01T16:08:28.736Z,193.50
2023-04-01T16:11:06.825Z,178.97
2023-04-01T16:13:42.516Z,226.00
2023-04-01T16:16:15.239Z,257.20
2023-04-01T16:18:51.365Z,272.63
2023-04-01T16:21:27.593Z,240.50
2023-04-01T16:23:58.332Z,224.73
2023-04-01T16:26:31.332Z,253.90
2023-04-01T16:29:05.609Z,202.13
2023-04-01T16:31:37.673Z,209.07
2023-04-01T16:34:11.403Z,215.07
2023-04-01T16:36:44.591Z,215.00
2023-04-01T16:39:20.355Z,196.83
2023-04-01T16:41:53.269Z,173.87
2023-04-01T16:44:23.005Z,173.17
2023-04-01T16:46:53.555Z,146.03
2023-04-01T16:49:31.868Z,130.70
2023-04-01T16:52:15.305Z,136.47
2023-04-01T16:54:45.897Z,123.87
2023-04-01T16:57:19.572Z,130.30
2023-04-01T16:59:49.416Z,126.90
2023-04-01T17:02:19.337Z,127.23
2023-04-01T17:04:47.988Z,106.10
2023-04-01T17:07:24.796Z,126.70
2023-04-01T17:09:58.735Z,103.63
2023-04-01T17:12:31.013Z,114.13
2023-04-01T17:15:04.407Z,117.40
2023-04-01T17:17:35.956Z,121.27
2023-04-01T17:20:17.429Z,126.87
2023-04-01T17:22:49.397Z,110.90
2023-04-01T17:25:23.421Z,108.23
2023-04-01T17:27:54.616Z,89.80
2023-04-01T17:30:26.483Z,73.73
2023-04-01T17:32:59.714Z,79.70
2023-04-01T17:35:30.246Z,62.43
2023-04-01T17:38:03.526Z,63.07
2023-04-01T17:40:36.631Z,55.97
2023-04-01T17:43:10.092Z,44.80
2023-04-01T17:45:45.060Z,41.37
2023-04-01T17:48:18.941Z,40.80
2023-04-01T17:50:52.676Z,42.97
2023-04-01T17:53:26.139Z,39.17
2023-04-01T17:56:01.949Z,38.33
2023-04-01T17:58:37.136Z,34.17
2023-04-01T18:01:11.387Z,36.27
2023-04-01T18:03:57.304Z,37.43
2023-04-01T18:06:33.422Z,41.90
2023-04-01T18:09:03.310Z,35.30
2023-04-01T18:11:40.013Z,30.27
2023-04-01T18:14:25.929Z,39.07
2023-04-01T18:17:01.016Z,33.93
2023-04-01T18:19:33.890Z,25.90
2023-04-01T18:22:04.495Z,23.70
2023-04-01T18:24:36.246Z,23.23
2023-04-01T18:27:05.763Z,25.60
2023-04-01T18:29:38.146Z,25.70
2023-04-01T18:32:13.978Z,28.40
2023-04-01T18:34:46.380Z,24.23
2023-04-01T18:37:19.962Z,24.77
2023-04-01T18:39:50.788Z,24.17
2023-04-01T18:42:22.808Z,24.33
2023-04-01T18:44:53.751Z,26.20
2023-04-01T18:47:27.724Z,26.67
2023-04-01T18:49:58.206Z,27.50
2023-04-01T18:52:29.819Z,24.90
2023-04-01T18:55:12.825Z,21.77
2023-04-01T18:57:43.507Z,25.87
2023-04-01T19:00:17.177Z,24.97
2023-04-01T19:02:48.250Z,25.87
2023-04-01T19:05:19.965Z,22.40
2023-04-01T19:07:50.148Z,20.60
2023-04-01T19:10:20.820Z,21.63
2023-04-01T19:12:56.140Z,22.00
2023-04-01T19:15:32.723Z,20.90
2023-04-01T19:18:06.266Z,18.87
2023-04-01T19:20:36.940Z,18.27
2023-04-01T19:23:14.775Z,15.70
2023-04-01T19:25:46.445Z,17.67
2023-04-01T19:28:27.145Z,16.30
2023-04-01T19:30:59.007Z,15.90
2023-04-01T19:33:33.067Z,14.77
2023-04-01T19:36:05.241Z,15.87
2023-04-01T19:38:36.588Z,14.47
2023-04-01T19:41:07.186Z,14.10
2023-04-01T19:43:42.577Z,13.07
2023-04-01T19:46:17.055Z,12.80
2023-04-01T19:48:52.701Z,12.27
2023-04-01T19:51:25.449Z,13.40
2023-04-01T19:53:56.690Z,15.17
2023-04-01T19:56:27.156Z,14.97
2023-04-01T19:58:57.231Z,14.00
2023-04-01T20:01:41.433Z,14.13
2023-04-01T20:04:15.365Z,14.27
2023-04-01T20:06:47.576Z,14.10
2023-04-01T20:09:28.854Z,14.93
2023-04-01T20:12:00.194Z,11.20
2023-04-01T20:14:31.922Z,12.30
2023-04-01T20:17:16.673Z,12.17
2023-04-01T20:19:46.528Z,12.97
2023-04-01T20:22:27.095Z,14.00
2023-04-01T20:24:55.887Z,14.87
2023-04-01T20:27:26.357Z,13.70
2023-04-01T20:30:02.836Z,13.20
2023-04-01T20:32:37.509Z,13.53
2023-04-01T20:35:24.412Z,17.03
2023-04-01T20:37:56.036Z,15.03
2023-04-01T20:40:33.751Z,17.37
2023-04-01T20:43:12.946Z,18.57
2023-04-01T20:45:43.877Z,13.80
2023-04-01T20:48:25.029Z,14.97
2023-04-01T20:50:54.013Z,13.57
2023-04-01T20:53:23.776Z,14.53
2023-04-01T20:56:12.622Z,13.60
2023-04-01T20:58:47.867Z,14.40
2023-04-01T21:01:18.899Z,16.33
2023-04-01T21:03:51.667Z,12.60
2023-04-01T21:06:27.802Z,11.07
2023-04-01T21:09:02.142Z,10.70
2023-04-01T21:11:32.887Z,9.60
2023-04-01T21:14:06.208Z,10.80
2023-04-01T21:16:42.744Z,9.23
2023-04-01T21:19:27.542Z,11.93
2023-04-01T21:22:17.729Z,11.87
2023-04-01T21:24:59.084Z,11.00
2023-04-01T21:27:39.389Z,12.73
2023-04-01T21:30:16.547Z,13.73
2023-04-01T21:32:51.762Z,12.93
2023-04-01T21:35:26.781Z,14.30
2023-04-01T21:38:10.633Z,10.73
2023-04-01T21:41:12.118Z,13.37
2023-04-01T21:43:53.328Z,12.77
2023-04-01T21:46:49.499Z,11.93
2023-04-01T21:49:38.417Z,13.27
2023-04-01T21:52:32.374Z,12.37
2023-04-01T21:55:10.929Z,15.67
2023-04-01T21:57:53.775Z,17.77
2023-04-01T22:00:23.340Z,13.37
2023-04-01T22:03:20.122Z,13.23
2023-04-01T22:05:57.405Z,12.20
2023-04-01T22:08:42.005Z,11.63
2023-04-01T22:11:13.733Z,9.90
2023-04-01T22:13:45.554Z,9.07
2023-04-01T22:16:19.086Z,7.60
2023-04-01T22:18:49.267Z,7.60
2023-04-01T22:21:22.279Z,8.37
2023-04-01T22:23:54.827Z,8.10
2023-04-01T22:26:28.023Z,8.90
2023-04-01T22:29:00.158Z,9.57
2023-04-01T22:31:30.878Z,9.90
2023-04-01T22:34:02.530Z,9.27
2023-04-01T22:36:34.272Z,11.00
2023-04-01T22:39:08.525Z,12.17
2023-04-01T22:41:46.108Z,10.37
2023-04-01T22:44:19.991Z,11.90
2023-04-01T22:46:53.526Z,10.60
2023-04-01T22:49:24.866Z,9.67
2023-04-01T22:51:55.714Z,9.83
2023-04-01T22:54:30.710Z,9.57
2023-04-01T22:57:13.037Z,9.17
2023-04-01T22:59:46.659Z,9.27
2023-04-01T23:02:17.358Z,8.60
2023-04-01T23:04:46.522Z,10.53
2023-04-01T23:07:31.551Z,12.47
2023-04-01T23:10:02.177Z,11.13
2023-04-01T23:12:31.304Z,10.37
2023-04-01T23:15:01.237Z,10.57
2023-04-01T23:17:52.772Z,13.40
2023-04-01T23:20:27.110Z,15.37
2023-04-01T23:22:59.760Z,13.70
2023-04-01T23:25:35.055Z,12.00
2023-04-01T23:28:20.244Z,15.47
2023-04-01T23:30:50.321Z,12.20
2023-04-01T23:33:23.622Z,11.77
2023-04-01T23:35:52.468Z,12.17
2023-04-01T23:38:21.223Z,15.10
2023-04-01T23:40:52.201Z,15.90
2023-04-01T23:43:24.753Z,14.97
2023-04-01T23:45:53.077Z,15.17
2023-04-01T23:48:22.369Z,17.43
2023-04-01T23:50:50.690Z,16.23
2023-04-01T23:53:19.637Z,16.27
2023-04-01T23:55:48.748Z,17.90
2023-04-01T23:58:26.896Z,16.40
